sensor_id;sensor_type;location;lat;lon;timestamp;temperature;humidity
68485;DHT22;55472;50.060;21.960;2023-04-01T00:01:07;8.90;86.70
68485;DHT22;55472;50.060;21.960;2023-04-01T00:03:35;8.90;86.70
68485;DHT22;55472;50.060;21.960;2023-04-01T00:06:02;8.90;86.60
68485;DHT22;55472;50.060;21.960;2023-04-01T00:08:28;8.90;86.70
68485;DHT22;55472;50.060;21.960;2023-04-01T00:10:55;8.90;86.70
68485;DHT22;55472;50.060;21.960;2023-04-01T00:13:24;8.90;86.80
68485;DHT22;55472;50.060;21.960;2023-04-01T00:15:52;8.90;86.80
68485;DHT22;55472;50.060;21.960;2023-04-01T00:18:19;8.90;86.70
68485;DHT22;55472;50.060;21.960;2023-04-01T00:20:47;8.90;86.90
68485;DHT22;55472;50.060;21.960;2023-04-01T00:23:14;8.90;87.00
68485;DHT22;55472;50.060;21.960;2023-04-01T00:25:41;8.80;86.90
68485;DHT22;55472;50.060;21.960;2023-04-01T00:28:08;8.80;86.90
68485;DHT22;55472;50.060;21.960;2023-04-01T00:30:35;8.80;86.90
68485;DHT22;55472;50.060;21.960;2023-04-01T00:33:03;8.80;87.00
68485;DHT22;55472;50.060;21.960;2023-04-01T00:35:29;8.80;87.20
68485;DHT22;55472;50.060;21.960;2023-04-01T00:37:56;8.70;87.30
68485;DHT22;55472;50.060;21.960;2023-04-01T00:40:28;8.70;87.20
68485;DHT22;55472;50.060;21.960;2023-04-01T00:42:57;8.70;87.30
68485;DHT22;55472;50.060;21.960;2023-04-01T00:45:36;8.70;87.20
68485;DHT22;55472;50.060;21.960;2023-04-01T00:48:10;8.70;87.20
68485;DHT22;55472;50.060;21.960;2023-04-01T00:50:39;8.60;87.40
68485;DHT22;55472;50.060;21.960;2023-04-01T00:53:07;8.60;87.60
68485;DHT22;55472;50.060;21.960;2023-04-01T00:55:36;8.60;87.60
68485;DHT22;55472;50.060;21.960;2023-04-01T00:58:08;8.60;87.80
68485;DHT22;55472;50.060;21.960;2023-04-01T01:00:39;8.50;87.80
68485;DHT22;55472;50.060;21.960;2023-04-01T01:03:06;8.60;88.00
68485;DHT22;55472;50.060;21.960;2023-04-01T01:08:39;8.50;88.10
68485;DHT22;55472;50.060;21.960;2023-04-01T01:11:28;8.50;88.30
68485;DHT22;55472;50.060;21.960;2023-04-01T01:26:07;8.40;88.80
68485;DHT22;55472;50.060;21.960;2023-04-01T01:35:38;8.30;89.30
68485;DHT22;55472;50.060;21.960;2023-04-01T01:38:14;8.30;89.40
68485;DHT22;55472;50.060;21.960;2023-04-01T01:40:45;8.30;89.60
68485;DHT22;55472;50.060;21.960;2023-04-01T01:43:26;8.30;89.70
68485;DHT22;55472;50.060;21.960;2023-04-01T01:45:59;8.20;89.80
68485;DHT22;55472;50.060;21.960;2023-04-01T01:48:32;8.20;89.80
68485;DHT22;55472;50.060;21.960;2023-04-01T01:51:00;8.20;90.00
68485;DHT22;55472;50.060;21.960;2023-04-01T01:53:27;8.20;90.00
68485;DHT22;55472;50.060;21.960;2023-04-01T01:55:53;8.20;90.20
68485;DHT22;55472;50.060;21.960;2023-04-01T01:58:33;8.10;90.40
68485;DHT22;55472;50.060;21.960;2023-04-01T02:01:07;8.10;90.40
68485;DHT22;55472;50.060;21.960;2023-04-01T02:03:39;8.10;90.60
68485;DHT22;55472;50.060;21.960;2023-04-01T02:06:10;8.10;90.70
68485;DHT22;55472;50.060;21.960;2023-04-01T02:11:19;8.10;91.00
68485;DHT22;55472;50.060;21.960;2023-04-01T02:14:10;8.00;91.00
68485;DHT22;55472;50.060;21.960;2023-04-01T02:17:05;8.10;91.10
68485;DHT22;55472;50.060;21.960;2023-04-01T02:19:59;8.00;91.00
68485;DHT22;55472;50.060;21.960;2023-04-01T02:22:34;8.10;90.80
68485;DHT22;55472;50.060;21.960;2023-04-01T02:25:13;8.10;90.80
68485;DHT22;55472;50.060;21.960;2023-04-01T02:27:43;8.10;90.50
68485;DHT22;55472;50.060;21.960;2023-04-01T02:30:12;8.10;90.60
68485;DHT22;55472;50.060;21.960;2023-04-01T02:32:40;8.10;90.50
68485;DHT22;55472;50.060;21.960;2023-04-01T02:35:10;8.10;90.50
68485;DHT22;55472;50.060;21.960;2023-04-01T02:37:41;8.10;90.50
68485;DHT22;55472;50.060;21.960;2023-04-01T02:40:11;8.10;90.40
68485;DHT22;55472;50.060;21.960;2023-04-01T02:42:39;8.00;90.30
68485;DHT22;55472;50.060;21.960;2023-04-01T02:45:06;8.00;90.30
68485;DHT22;55472;50.060;21.960;2023-04-01T02:47:33;8.00;90.30
68485;DHT22;55472;50.060;21.960;2023-04-01T02:49:59;8.00;90.40
68485;DHT22;55472;50.060;21.960;2023-04-01T02:52:27;8.00;90.40
68485;DHT22;55472;50.060;21.960;2023-04-01T02:54:55;8.00;90.40
68485;DHT22;55472;50.060;21.960;2023-04-01T02:57:22;8.00;90.50
68485;DHT22;55472;50.060;21.960;2023-04-01T02:59:49;7.90;90.50
68485;DHT22;55472;50.060;21.960;2023-04-01T03:02:17;7.90;90.50
68485;DHT22;55472;50.060;21.960;2023-04-01T03:04:43;7.90;90.60
68485;DHT22;55472;50.060;21.960;2023-04-01T03:07:10;7.90;90.50
68485;DHT22;55472;50.060;21.960;2023-04-01T03:09:37;7.90;90.50
68485;DHT22;55472;50.060;21.960;2023-04-01T03:12:04;8.00;90.20
68485;DHT22;55472;50.060;21.960;2023-04-01T03:14:31;8.00;90.10
68485;DHT22;55472;50.060;21.960;2023-04-01T03:16:57;8.00;90.10
68485;DHT22;55472;50.060;21.960;2023-04-01T03:19:23;8.00;90.10
68485;DHT22;55472;50.060;21.960;2023-04-01T03:21:49;8.00;90.00
68485;DHT22;55472;50.060;21.960;2023-04-01T03:24:16;7.90;90.00
68485;DHT22;55472;50.060;21.960;2023-04-01T03:26:42;7.90;90.10
68485;DHT22;55472;50.060;21.960;2023-04-01T03:29:08;7.90;90.00
68485;DHT22;55472;50.060;21.960;2023-04-01T03:31:34;7.90;90.00
68485;DHT22;55472;50.060;21.960;2023-04-01T03:34:01;7.90;90.00
68485;DHT22;55472;50.060;21.960;2023-04-01T03:36:27;7.90;89.90
68485;DHT22;55472;50.060;21.960;2023-04-01T03:38:54;7.90;89.80
68485;DHT22;55472;50.060;21.960;2023-04-01T03:41:20;7.80;89.80
68485;DHT22;55472;50.060;21.960;2023-04-01T03:43:47;7.80;89.80
68485;DHT22;55472;50.060;21.960;2023-04-01T03:46:18;7.80;89.90
68485;DHT22;55472;50.060;21.960;2023-04-01T03:48:45;7.80;90.00
68485;DHT22;55472;50.060;21.960;2023-04-01T03:51:11;7.80;90.00
68485;DHT22;55472;50.060;21.960;2023-04-01T03:53:37;7.80;90.00
68485;DHT22;55472;50.060;21.960;2023-04-01T03:56:05;7.80;89.90
68485;DHT22;55472;50.060;21.960;2023-04-01T03:58:32;7.80;89.90
68485;DHT22;55472;50.060;21.960;2023-04-01T04:00:58;7.70;89.80
68485;DHT22;55472;50.060;21.960;2023-04-01T04:03:25;7.70;89.80
68485;DHT22;55472;50.060;21.960;2023-04-01T04:05:51;7.70;89.80
68485;DHT22;55472;50.060;21.960;2023-04-01T04:08:18;7.70;89.70
68485;DHT22;55472;50.060;21.960;2023-04-01T04:10:44;7.70;89.60
68485;DHT22;55472;50.060;21.960;2023-04-01T04:13:13;7.60;89.70
68485;DHT22;55472;50.060;21.960;2023-04-01T04:15:39;7.60;89.60
68485;DHT22;55472;50.060;21.960;2023-04-01T04:18:05;7.60;89.70
68485;DHT22;55472;50.060;21.960;2023-04-01T04:20:31;7.60;89.70
68485;DHT22;55472;50.060;21.960;2023-04-01T04:22:58;7.50;89.70
68485;DHT22;55472;50.060;21.960;2023-04-01T04:25:25;7.60;89.80
68485;DHT22;55472;50.060;21.960;2023-04-01T04:27:52;7.50;90.00
68485;DHT22;55472;50.060;21.960;2023-04-01T04:30:18;7.50;90.10
68485;DHT22;55472;50.060;21.960;2023-04-01T04:32:44;7.50;90.10
68485;DHT22;55472;50.060;21.960;2023-04-01T04:35:10;7.50;90.30
68485;DHT22;55472;50.060;21.960;2023-04-01T04:37:36;7.50;90.20
68485;DHT22;55472;50.060;21.960;2023-04-01T04:40:03;7.50;90.40
68485;DHT22;55472;50.060;21.960;2023-04-01T04:42:29;7.50;90.40
68485;DHT22;55472;50.060;21.960;2023-04-01T04:44:55;7.50;89.90
68485;DHT22;55472;50.060;21.960;2023-04-01T04:47:22;7.50;89.50
68485;DHT22;55472;50.060;21.960;2023-04-01T04:49:48;7.50;88.80
68485;DHT22;55472;50.060;21.960;2023-04-01T04:52:14;7.60;88.20
68485;DHT22;55472;50.060;21.960;2023-04-01T04:54:40;7.60;87.80
68485;DHT22;55472;50.060;21.960;2023-04-01T04:57:07;7.60;87.10
68485;DHT22;55472;50.060;21.960;2023-04-01T04:59:33;7.70;86.40
68485;DHT22;55472;50.060;21.960;2023-04-01T05:01:59;7.70;85.90
68485;DHT22;55472;50.060;21.960;2023-04-01T05:04:25;7.80;85.70
68485;DHT22;55472;50.060;21.960;2023-04-01T05:06:51;7.80;85.50
68485;DHT22;55472;50.060;21.960;2023-04-01T05:09:18;7.90;85.00
68485;DHT22;55472;50.060;21.960;2023-04-01T05:11:44;7.90;84.70
68485;DHT22;55472;50.060;21.960;2023-04-01T05:14:15;8.00;84.60
68485;DHT22;55472;50.060;21.960;2023-04-01T05:16:42;8.00;84.30
68485;DHT22;55472;50.060;21.960;2023-04-01T05:19:08;8.00;84.30
68485;DHT22;55472;50.060;21.960;2023-04-01T05:21:35;8.10;84.10
68485;DHT22;55472;50.060;21.960;2023-04-01T05:24:01;8.10;83.80
68485;DHT22;55472;50.060;21.960;2023-04-01T05:26:27;8.20;83.50
68485;DHT22;55472;50.060;21.960;2023-04-01T05:28:53;8.20;83.40
68485;DHT22;55472;50.060;21.960;2023-04-01T05:31:19;8.30;83.10
68485;DHT22;55472;50.060;21.960;2023-04-01T05:33:45;8.30;82.90
68485;DHT22;55472;50.060;21.960;2023-04-01T05:36:15;8.40;82.80
68485;DHT22;55472;50.060;21.960;2023-04-01T05:38:42;8.50;82.40
68485;DHT22;55472;50.060;21.960;2023-04-01T05:41:09;8.50;82.30
68485;DHT22;55472;50.060;21.960;2023-04-01T05:43:36;8.60;81.90
68485;DHT22;55472;50.060;21.960;2023-04-01T05:46:03;8.70;81.70
68485;DHT22;55472;50.060;21.960;2023-04-01T05:48:29;8.80;81.60
68485;DHT22;55472;50.060;21.960;2023-04-01T05:50:55;8.80;81.40
68485;DHT22;55472;50.060;21.960;2023-04-01T05:53:21;8.90;81.30
68485;DHT22;55472;50.060;21.960;2023-04-01T05:55:48;9.00;80.90
68485;DHT22;55472;50.060;21.960;2023-04-01T05:58:14;9.10;80.50
68485;DHT22;55472;50.060;21.960;2023-04-01T06:00:40;9.20;80.10
68485;DHT22;55472;50.060;21.960;2023-04-01T06:03:06;9.30;79.60
68485;DHT22;55472;50.060;21.960;2023-04-01T06:05:41;9.30;79.10
68485;DHT22;55472;50.060;21.960;2023-04-01T06:08:16;9.40;78.80
68485;DHT22;55472;50.060;21.960;2023-04-01T06:11:18;9.50;78.70
68485;DHT22;55472;50.060;21.960;2023-04-01T06:13:56;9.60;78.50
68485;DHT22;55472;50.060;21.960;2023-04-01T06:19:47;9.90;78.10
68485;DHT22;55472;50.060;21.960;2023-04-01T06:25:39;10.50;76.40
68485;DHT22;55472;50.060;21.960;2023-04-01T06:53:56;13.30;65.50
68485;DHT22;55472;50.060;21.960;2023-04-01T06:56:49;13.40;65.10
68485;DHT22;55472;50.060;21.960;2023-04-01T06:59:31;13.80;64.70
68485;DHT22;55472;50.060;21.960;2023-04-01T07:02:18;14.00;62.90
68485;DHT22;55472;50.060;21.960;2023-04-01T07:04:51;14.20;62.50
68485;DHT22;55472;50.060;21.960;2023-04-01T07:07:46;14.20;62.20
68485;DHT22;55472;50.060;21.960;2023-04-01T07:10:23;14.20;61.40
68485;DHT22;55472;50.060;21.960;2023-04-01T07:13:07;14.00;61.40
68485;DHT22;55472;50.060;21.960;2023-04-01T07:15:45;13.90;62.50
68485;DHT22;55472;50.060;21.960;2023-04-01T07:18:45;13.90;62.90
68485;DHT22;55472;50.060;21.960;2023-04-01T07:21:29;14.10;62.00
68485;DHT22;55472;50.060;21.960;2023-04-01T07:24:06;14.20;61.50
68485;DHT22;55472;50.060;21.960;2023-04-01T07:26:37;14.30;60.80
68485;DHT22;55472;50.060;21.960;2023-04-01T07:29:09;14.30;61.30
68485;DHT22;55472;50.060;21.960;2023-04-01T07:34:25;14.70;61.70
68485;DHT22;55472;50.060;21.960;2023-04-01T07:37:00;14.90;60.60
68485;DHT22;55472;50.060;21.960;2023-04-01T07:57:02;14.90;60.20
68485;DHT22;55472;50.060;21.960;2023-04-01T08:15:41;14.20;61.40
68485;DHT22;55472;50.060;21.960;2023-04-01T08:18:38;14.00;62.70
68485;DHT22;55472;50.060;21.960;2023-04-01T08:21:24;14.00;62.70
68485;DHT22;55472;50.060;21.960;2023-04-01T08:23:59;13.90;62.40
68485;DHT22;55472;50.060;21.960;2023-04-01T08:29:16;14.00;62.80
68485;DHT22;55472;50.060;21.960;2023-04-01T08:32:00;14.00;62.10
68485;DHT22;55472;50.060;21.960;2023-04-01T08:34:39;14.00;62.10
68485;DHT22;55472;50.060;21.960;2023-04-01T08:39:43;14.00;62.40
68485;DHT22;55472;50.060;21.960;2023-04-01T08:54:31;14.30;62.30
68485;DHT22;55472;50.060;21.960;2023-04-01T08:57:22;15.80;59.40
68485;DHT22;55472;50.060;21.960;2023-04-01T09:11:21;20.60;44.60
68485;DHT22;55472;50.060;21.960;2023-04-01T09:20:45;17.40;50.40
68485;DHT22;55472;50.060;21.960;2023-04-01T09:32:12;15.50;56.20
68485;DHT22;55472;50.060;21.960;2023-04-01T09:52:31;15.70;55.60
68485;DHT22;55472;50.060;21.960;2023-04-01T10:01:52;15.40;54.80
68485;DHT22;55472;50.060;21.960;2023-04-01T10:37:21;14.70;56.60
68485;DHT22;55472;50.060;21.960;2023-04-01T10:49:59;14.50;57.40
68485;DHT22;55472;50.060;21.960;2023-04-01T10:56:11;14.40;58.00
68485;DHT22;55472;50.060;21.960;2023-04-01T10:59:36;14.60;58.70
68485;DHT22;55472;50.060;21.960;2023-04-01T11:08:44;16.00;52.00
68485;DHT22;55472;50.060;21.960;2023-04-01T11:14:58;16.00;49.40
68485;DHT22;55472;50.060;21.960;2023-04-01T11:21:29;16.00;51.00
68485;DHT22;55472;50.060;21.960;2023-04-01T11:30:44;17.70;47.70
68485;DHT22;55472;50.060;21.960;2023-04-01T11:44:26;19.20;45.50
68485;DHT22;55472;50.060;21.960;2023-04-01T11:50:10;19.50;43.50
68485;DHT22;55472;50.060;21.960;2023-04-01T11:55:53;19.80;44.40
68485;DHT22;55472;50.060;21.960;2023-04-01T12:01:05;20.10;43.90
68485;DHT22;55472;50.060;21.960;2023-04-01T12:04:11;20.20;43.80
68485;DHT22;55472;50.060;21.960;2023-04-01T12:07:19;20.20;42.90
68485;DHT22;55472;50.060;21.960;2023-04-01T12:13:02;19.90;44.00
68485;DHT22;55472;50.060;21.960;2023-04-01T12:15:56;19.90;45.10
68485;DHT22;55472;50.060;21.960;2023-04-01T12:18:42;20.00;45.00
68485;DHT22;55472;50.060;21.960;2023-04-01T12:27:38;20.10;44.60
68485;DHT22;55472;50.060;21.960;2023-04-01T12:33:25;19.80;44.60
68485;DHT22;55472;50.060;21.960;2023-04-01T12:36:25;19.50;45.40
68485;DHT22;55472;50.060;21.960;2023-04-01T12:45:38;19.20;45.50
68485;DHT22;55472;50.060;21.960;2023-04-01T13:21:04;16.70;50.10
68485;DHT22;55472;50.060;21.960;2023-04-01T13:29:57;16.40;52.60
68485;DHT22;55472;50.060;21.960;2023-04-01T13:32:42;16.40;51.80
68485;DHT22;55472;50.060;21.960;2023-04-01T13:38:37;16.20;52.30
68485;DHT22;55472;50.060;21.960;2023-04-01T13:44:24;16.30;55.00
68485;DHT22;55472;50.060;21.960;2023-04-01T13:50:01;16.50;56.10
68485;DHT22;55472;50.060;21.960;2023-04-01T14:01:40;16.90;55.90
68485;DHT22;55472;50.060;21.960;2023-04-01T14:18:33;16.50;53.50
68485;DHT22;55472;50.060;21.960;2023-04-01T14:21:27;16.50;54.20
68485;DHT22;55472;50.060;21.960;2023-04-01T14:29:46;16.50;54.20
68485;DHT22;55472;50.060;21.960;2023-04-01T14:33:11;16.50;53.80
68485;DHT22;55472;50.060;21.960;2023-04-01T14:38:39;16.70;53.50
68485;DHT22;55472;50.060;21.960;2023-04-01T14:49:40;16.30;53.00
68485;DHT22;55472;50.060;21.960;2023-04-01T14:54:48;16.00;54.20
68485;DHT22;55472;50.060;21.960;2023-04-01T15:00:12;15.70;54.50
68485;DHT22;55472;50.060;21.960;2023-04-01T15:17:35;14.90;57.80
68485;DHT22;55472;50.060;21.960;2023-04-01T15:38:31;14.30;58.20
68485;DHT22;55472;50.060;21.960;2023-04-01T15:41:14;14.20;57.80
68485;DHT22;55472;50.060;21.960;2023-04-01T15:43:56;14.20;58.50
68485;DHT22;55472;50.060;21.960;2023-04-01T15:49:35;14.10;58.80
68485;DHT22;55472;50.060;21.960;2023-04-01T15:52:24;14.00;59.10
68485;DHT22;55472;50.060;21.960;2023-04-01T16:13:08;13.70;61.30
68485;DHT22;55472;50.060;21.960;2023-04-01T16:16:00;13.60;60.30
68485;DHT22;55472;50.060;21.960;2023-04-01T16:21:35;13.50;60.40
68485;DHT22;55472;50.060;21.960;2023-04-01T16:27:07;13.30;61.40
68485;DHT22;55472;50.060;21.960;2023-04-01T16:32:57;13.10;63.40
68485;DHT22;55472;50.060;21.960;2023-04-01T16:47:39;12.50;72.30
68485;DHT22;55472;50.060;21.960;2023-04-01T16:50:21;12.50;73.20
68485;DHT22;55472;50.060;21.960;2023-04-01T16:53:08;12.30;73.50
68485;DHT22;55472;50.060;21.960;2023-04-01T16:55:54;12.30;74.20
68485;DHT22;55472;50.060;21.960;2023-04-01T16:58:33;12.20;74.00
68485;DHT22;55472;50.060;21.960;2023-04-01T17:01:20;12.10;74.20
68485;DHT22;55472;50.060;21.960;2023-04-01T17:04:04;12.00;74.40
68485;DHT22;55472;50.060;21.960;2023-04-01T17:07:06;12.00;74.60
68485;DHT22;55472;50.060;21.960;2023-04-01T17:15:43;11.70;75.10
68485;DHT22;55472;50.060;21.960;2023-04-01T17:51:33;11.40;75.60
68485;DHT22;55472;50.060;21.960;2023-04-01T17:57:45;10.90;76.10
68485;DHT22;55472;50.060;21.960;2023-04-01T18:00:23;10.90;75.90
68485;DHT22;55472;50.060;21.960;2023-04-01T18:23:55;10.50;78.00
68485;DHT22;55472;50.060;21.960;2023-04-01T18:26:28;10.40;78.30
68485;DHT22;55472;50.060;21.960;2023-04-01T18:29:11;10.40;78.40
68485;DHT22;55472;50.060;21.960;2023-04-01T18:31:49;10.30;78.60
68485;DHT22;55472;50.060;21.960;2023-04-01T18:46:45;10.20;81.10
68485;DHT22;55472;50.060;21.960;2023-04-01T18:49:29;10.10;81.50
68485;DHT22;55472;50.060;21.960;2023-04-01T18:52:20;10.10;82.60
68485;DHT22;55472;50.060;21.960;2023-04-01T18:55:29;10.00;82.60
68485;DHT22;55472;50.060;21.960;2023-04-01T18:58:18;10.00;82.90
68485;DHT22;55472;50.060;21.960;2023-04-01T19:01:11;9.90;83.00
68485;DHT22;55472;50.060;21.960;2023-04-01T19:06:42;9.80;82.60
68485;DHT22;55472;50.060;21.960;2023-04-01T19:09:18;9.70;82.80
68485;DHT22;55472;50.060;21.960;2023-04-01T19:35:57;9.50;83.40
68485;DHT22;55472;50.060;21.960;2023-04-01T19:53:15;9.30;84.50
68485;DHT22;55472;50.060;21.960;2023-04-01T20:01:53;9.30;84.90
68485;DHT22;55472;50.060;21.960;2023-04-01T20:04:53;9.30;85.00
68485;DHT22;55472;50.060;21.960;2023-04-01T20:07:35;9.30;85.00
68485;DHT22;55472;50.060;21.960;2023-04-01T20:10:25;9.40;85.10
68485;DHT22;55472;50.060;21.960;2023-04-01T20:19:26;9.40;85.30
68485;DHT22;55472;50.060;21.960;2023-04-01T20:21:57;9.40;85.10
68485;DHT22;55472;50.060;21.960;2023-04-01T20:24:33;9.40;85.30
68485;DHT22;55472;50.060;21.960;2023-04-01T20:44:11;9.50;86.00
68485;DHT22;55472;50.060;21.960;2023-04-01T20:57:23;9.60;86.60
68485;DHT22;55472;50.060;21.960;2023-04-01T21:00:16;9.60;86.70
68485;DHT22;55472;50.060;21.960;2023-04-01T21:03:29;9.60;86.80
68485;DHT22;55472;50.060;21.960;2023-04-01T21:12:46;9.50;87.20
68485;DHT22;55472;50.060;21.960;2023-04-01T21:18:47;9.50;87.20
68485;DHT22;55472;50.060;21.960;2023-04-01T21:21:25;9.50;87.30
68485;DHT22;55472;50.060;21.960;2023-04-01T21:26:48;9.50;87.80
68485;DHT22;55472;50.060;21.960;2023-04-01T21:34:55;9.50;87.90
68485;DHT22;55472;50.060;21.960;2023-04-01T21:42:59;9.50;88.30
68485;DHT22;55472;50.060;21.960;2023-04-01T21:53:55;9.50;88.40
68485;DHT22;55472;50.060;21.960;2023-04-01T22:08:36;9.40;88.80
68485;DHT22;55472;50.060;21.960;2023-04-01T22:14:21;9.40;89.00
68485;DHT22;55472;50.060;21.960;2023-04-01T22:19:52;9.40;89.00
68485;DHT22;55472;50.060;21.960;2023-04-01T22:25:19;9.40;89.40
68485;DHT22;55472;50.060;21.960;2023-04-01T22:28:09;9.40;89.40
68485;DHT22;55472;50.060;21.960;2023-04-01T22:30:52;9.40;89.40
68485;DHT22;55472;50.060;21.960;2023-04-01T22:37:22;9.40;89.70
68485;DHT22;55472;50.060;21.960;2023-04-01T22:42:46;9.40;89.70
68485;DHT22;55472;50.060;21.960;2023-04-01T22:45:44;9.40;89.60
68485;DHT22;55472;50.060;21.960;2023-04-01T22:48:41;9.40;89.70
68485;DHT22;55472;50.060;21.960;2023-04-01T22:53:46;9.30;89.60
68485;DHT22;55472;50.060;21.960;2023-04-01T22:59:26;9.30;90.00
68485;DHT22;55472;50.060;21.960;2023-04-01T23:04:43;9.30;90.20
68485;DHT22;55472;50.060;21.960;2023-04-01T23:07:23;9.20;90.50
68485;DHT22;55472;50.060;21.960;2023-04-01T23:09:58;9.20;90.70
68485;DHT22;55472;50.060;21.960;2023-04-01T23:12:29;9.20;91.10
68485;DHT22;55472;50.060;21.960;2023-04-01T23:14:59;9.20;91.40
68485;DHT22;55472;50.060;21.960;2023-04-01T23:20:53;9.20;92.00
68485;DHT22;55472;50.060;21.960;2023-04-01T23:26:50;9.20;92.30
68485;DHT22;55472;50.060;21.960;2023-04-01T23:29:21;9.20;92.30
68485;DHT22;55472;50.060;21.960;2023-04-01T23:32:01;9.20;92.40
68485;DHT22;55472;50.060;21.960;2023-04-01T23:34:35;9.10;92.40
68485;DHT22;55472;50.060;21.960;2023-04-01T23:37:08;9.10;92.40
68485;DHT22;55472;50.060;21.960;2023-04-01T23:39:40;9.10;92.30
68485;DHT22;55472;50.060;21.960;2023-04-01T23:42:38;9.10;92.60
68485;DHT22;55472;50.060;21.960;2023-04-01T23:45:17;9.10;92.50
68485;DHT22;55472;50.060;21.960;2023-04-01T23:47:46;9.10;92.50
68485;DHT22;55472;50.060;21.960;2023-04-01T23:53:03;9.00;92.50
68485;DHT22;55472;50.060;21.960;2023-04-01T23:55:34;9.10;92.70
